Terminal Aerodrome Forecast
Issued by NWS Atlanta, GA

Home | Current Version | Previous Version | Text Only | Print | Product List | Glossary On
Versions: 1 2 3 4 5 6 7 8 9 10 11 12 13 14 15 16 17
784
FTUS42 KFFC 030523
TAFCSG
TAF
KCSG 030523Z 0306/0406 23003KT P6SM VCSH BKN090
     FM030800 25003KT 5SM BR SCT009 BKN015
     FM031000 24004KT 6SM BR BKN008
     FM031400 27009KT P6SM OVC015 PROB30 0317/0321 -TSRA BKN030CB
     FM032100 26008KT P6SM VCSH BKN050
     FM032300 25005KT P6SM BKN250=

USA.gov is the U.S. government's official web portal to all federal, state and local government web resources and services.